Time;durP1;ratioP1;P1;durP2;ratioP2;P2;SDS_P1;SDS_P2;PMS_P1;PMS_P2;Temp;Humidity;BMP_temperature;BMP_pressure;BME280_temperature;BME280_humidity;BME280_pressure;Samples;Min_cycle;Max_cycle;Signal;HPM_P1;HPM_P2
2022/05/12 00:00:16;;;;;;;;;;;;;;;20.62;44.39;99639.97;4439965;32;34921;-69
2022/05/12 00:02:44;;;;;;;;;;;;;;;20.62;44.54;99648.97;4450280;32;33954;-69
2022/05/12 00:05:12;;;;;;;;;;;;;;;20.60;44.79;99645.56;4453293;32;33407;-68
2022/05/12 00:07:40;;;;;;;;;;;;;;;20.60;44.80;99645.56;4450286;32;32690;-68
2022/05/12 00:10:09;;;;;;;;;;;;;;;20.62;44.76;99640.81;4448704;32;33403;-67
2022/05/12 00:12:37;;;;;;;;;;;;;;;20.34;45.34;99642.34;4447955;32;34093;-68
2022/05/12 00:15:06;;;;;;;;;;;;;;;20.47;45.18;99634.44;4446653;32;33820;-67
2022/05/12 00:17:34;;;;;;;;;;;;;;;20.41;45.44;99643.31;4442034;32;36301;-67
2022/05/12 00:20:02;;;;;;;;;;;;;;;20.44;45.28;99641.06;4441447;32;35972;-67
2022/05/12 00:22:30;;;;;;;;;;;;;;;20.47;45.30;99645.31;4440014;32;34198;-67
2022/05/12 00:24:58;;;;;;;;;;;;;;;20.49;45.27;99629.66;4441654;32;34514;-68
2022/05/12 00:27:25;;;;;;;;;;;;;;;20.47;45.18;99639.88;4442144;32;34143;-68
2022/05/12 00:29:52;;;;;;;;;;;;;;;20.45;45.11;99631.91;4441932;32;34464;-68
2022/05/12 00:32:20;;;;;;;;;;;;;;;20.45;45.16;99628.34;4442270;32;33383;-68
2022/05/12 00:34:48;;;;;;;;;;;;;;;20.43;45.16;99630.41;4453110;32;32939;-67
2022/05/12 00:37:16;;;;;;;;;;;;;;;20.39;45.29;99624.47;4450231;32;34113;-68
2022/05/12 00:39:43;;;;;;;;;;;;;;;20.40;45.31;99625.31;4452618;32;34202;-67
2022/05/12 00:42:11;;;;;;;;;;;;;;;20.44;45.17;99623.91;4445987;32;34238;-67
2022/05/12 00:44:39;;;;;;;;;;;;;;;20.31;45.62;99624.53;4450052;32;33418;-68
2022/05/12 00:47:06;;;;;;;;;;;;;;;20.19;46.00;99624.12;4450772;32;35229;-66
2022/05/12 00:49:35;;;;;;;;;;;;;;;20.24;46.03;99624.41;4445990;32;34805;-67
2022/05/12 00:52:06;;;;;;;;;;;;;;;20.32;45.71;99626.22;4449187;32;34363;-67
2022/05/12 00:54:44;;;;;;;;;;;;;;;20.36;45.70;99629.44;4452966;32;33479;-67
2022/05/12 00:57:12;;;;;;;;;;;;;;;20.39;45.55;99626.34;4450127;32;34508;-66
2022/05/12 00:59:40;;;;;;;;;;;;;;;20.27;45.93;99627.78;4446318;32;34233;-66
2022/05/12 01:02:10;;;;;;;;;;;;;;;20.19;46.37;99623.25;4442068;32;34075;-66
2022/05/12 01:04:39;;;;;;;;;;;;;;;20.36;45.90;99626.72;4446225;32;33055;-65
2022/05/12 01:07:07;;;;;;;;;;;;;;;20.41;45.82;99624.28;4445015;32;32953;-65
2022/05/12 01:09:36;;;;;;;;;;;;;;;20.42;45.89;99626.00;4447988;32;34811;-63
2022/05/12 01:12:04;;;;;;;;;;;;;;;20.33;46.06;99621.63;4447831;32;33483;-64
2022/05/12 01:14:33;;;;;;;;;;;;;;;20.25;46.30;99627.97;4450873;32;33564;-64
2022/05/12 01:17:02;;;;;;;;;;;;;;;20.18;46.50;99619.69;4448607;32;32899;-64
2022/05/12 01:19:32;;;;;;;;;;;;;;;20.06;46.79;99615.69;4445304;32;34211;-65
2022/05/12 01:22:02;;;;;;;;;;;;;;;20.19;46.40;99624.12;4449509;32;34913;-65
2022/05/12 01:24:42;;;;;;;;;;;;;;;20.10;46.70;99625.19;4449122;32;33516;-65
2022/05/12 01:27:22;;;;;;;;;;;;;;;20.04;47.11;99617.75;4450118;32;35222;-65
2022/05/12 01:29:51;;;;;;;;;;;;;;;20.14;46.68;99622.94;4447852;32;33126;-67
2022/05/12 01:32:21;;;;;;;;;;;;;;;20.13;46.63;99622.09;4444381;32;35233;-68
2022/05/12 01:34:49;;;;;;;;;;;;;;;20.18;46.64;99618.84;4449150;32;32200;-66
2022/05/12 01:37:17;;;;;;;;;;;;;;;20.28;46.54;99619.44;4446202;32;35096;-67
2022/05/12 01:39:46;;;;;;;;;;;;;;;20.27;46.74;99627.78;4449383;32;33821;-70
2022/05/12 01:42:14;;;;;;;;;;;;;;;20.04;47.26;99625.91;4443203;32;33796;-70
2022/05/12 01:44:43;;;;;;;;;;;;;;;20.25;46.85;99620.66;4448236;32;33622;-68
2022/05/12 01:47:16;;;;;;;;;;;;;;;20.24;46.95;99618.97;4448756;32;32840;-69
2022/05/12 01:49:57;;;;;;;;;;;;;;;20.23;46.89;99624.59;4452918;32;33023;-68
2022/05/12 01:52:28;;;;;;;;;;;;;;;20.21;46.93;99616.59;4450158;32;33183;-69
2022/05/12 01:54:58;;;;;;;;;;;;;;;20.25;46.82;99626.09;4453454;32;32175;-70
2022/05/12 01:57:29;;;;;;;;;;;;;;;20.23;46.89;99617.28;4454633;32;34211;-68
2022/05/12 01:59:59;;;;;;;;;;;;;;;20.40;46.42;99614.44;4450747;32;34275;-69
2022/05/12 02:02:29;;;;;;;;;;;;;;;20.29;47.09;99615.72;4451874;32;34216;-69
2022/05/12 02:04:58;;;;;;;;;;;;;;;20.14;47.30;99609.38;4454178;32;33157;-68
2022/05/12 02:07:27;;;;;;;;;;;;;;;20.39;46.65;99616.31;4452754;32;32921;-68
2022/05/12 02:09:56;;;;;;;;;;;;;;;20.32;47.01;99601.78;4455625;32;35203;-70
2022/05/12 02:12:26;;;;;;;;;;;;;;;20.33;46.85;99597.19;4450191;32;33793;-70
2022/05/12 02:14:56;;;;;;;;;;;;;;;20.53;46.58;99592.97;4451881;32;33294;-69
2022/05/12 02:17:24;;;;;;;;;;;;;;;20.36;47.08;99599.53;4454796;32;33557;-68
2022/05/12 02:19:54;;;;;;;;;;;;;;;20.52;46.61;99585.00;4454235;32;36798;-66
2022/05/12 02:22:23;;;;;;;;;;;;;;;20.58;46.53;99592.44;4451887;32;32591;-68
2022/05/12 02:24:52;;;;;;;;;;;;;;;20.50;46.80;99592.44;4452378;32;34452;-66
2022/05/12 02:27:21;;;;;;;;;;;;;;;20.34;47.22;99594.25;4454960;32;35387;-67
2022/05/12 02:29:50;;;;;;;;;;;;;;;20.41;47.01;99602.53;4442718;32;34146;-68
2022/05/12 02:32:18;;;;;;;;;;;;;;;20.28;47.20;99602.28;4450680;32;35212;-70
2022/05/12 02:34:50;;;;;;;;;;;;;;;20.46;46.87;99597.41;4455468;32;33401;-68
2022/05/12 02:37:24;;;;;;;;;;;;;;;20.46;46.85;99598.25;4450928;32;34344;-68
2022/05/12 02:39:55;;;;;;;;;;;;;;;20.46;46.69;99600.13;4455425;32;34630;-68
2022/05/12 02:42:22;;;;;;;;;;;;;;;20.44;46.78;99597.56;4451080;32;34140;-68
2022/05/12 02:44:50;;;;;;;;;;;;;;;20.51;46.52;99607.72;4454562;32;33411;-67
2022/05/12 02:47:19;;;;;;;;;;;;;;;20.55;46.64;99595.50;4453519;32;34256;-70
2022/05/12 02:49:48;;;;;;;;;;;;;;;20.48;46.63;99600.78;4450375;32;33424;-68
2022/05/12 02:52:16;;;;;;;;;;;;;;;20.49;46.66;99605.19;4451729;32;33000;-69
2022/05/12 02:54:45;;;;;;;;;;;;;;;20.33;46.94;99606.16;4455032;32;33156;-69
2022/05/12 02:57:13;;;;;;;;;;;;;;;20.30;47.16;99608.41;4452309;32;33938;-67
2022/05/12 02:59:42;;;;;;;;;;;;;;;20.20;46.97;99609.50;4449769;32;35388;-67
2022/05/12 03:02:11;;;;;;;;;;;;;;;20.02;47.38;99607.03;4448368;32;34142;-67
2022/05/12 03:04:40;;;;;;;;;;;;;;;19.95;47.62;99613.37;4450841;32;32162;-67
2022/05/12 03:07:09;;;;;;;;;;;;;;;19.98;47.42;99611.16;4447115;32;33986;-67
2022/05/12 03:09:38;;;;;;;;;;;;;;;19.81;47.87;99615.00;4451137;32;34421;-68
2022/05/12 03:12:07;;;;;;;;;;;;;;;19.63;48.33;99619.78;4445487;32;33943;-66
2022/05/12 03:14:36;;;;;;;;;;;;;;;19.72;48.00;99618.75;4446673;32;32369;-72
2022/05/12 03:17:05;;;;;;;;;;;;;;;19.68;48.14;99629.13;4442902;32;32801;-69
2022/05/12 03:19:34;;;;;;;;;;;;;;;19.75;48.16;99632.00;4448194;32;33375;-69
2022/05/12 03:22:04;;;;;;;;;;;;;;;19.67;48.22;99632.84;4449863;32;34453;-68
2022/05/12 03:24:36;;;;;;;;;;;;;;;19.71;48.14;99630.63;4449076;32;32530;-68
2022/05/12 03:27:03;;;;;;;;;;;;;;;19.78;47.87;99628.91;4445675;32;35897;-68
2022/05/12 03:29:32;;;;;;;;;;;;;;;19.77;47.96;99627.22;4452985;32;34248;-68
2022/05/12 03:32:01;;;;;;;;;;;;;;;19.54;48.48;99622.50;4448445;32;34942;-68
2022/05/12 03:34:30;;;;;;;;;;;;;;;19.70;48.13;99613.50;4446646;32;33388;-68
2022/05/12 03:36:59;;;;;;;;;;;;;;;19.75;48.07;99621.13;4447019;32;32851;-68
2022/05/12 03:39:28;;;;;;;;;;;;;;;19.70;48.32;99623.50;4449494;32;33104;-68
2022/05/12 03:41:57;;;;;;;;;;;;;;;19.76;48.27;99618.22;4442989;32;32794;-67
2022/05/12 03:47:14;;;;;;;;;;;;;;;19.71;48.63;99626.06;4443699;32;34166;-66
2022/05/12 03:49:43;;;;;;;;;;;;;;;19.89;48.08;99620.34;4449814;32;33789;-66
2022/05/12 03:52:12;;;;;;;;;;;;;;;19.87;48.07;99625.16;4449607;32;34001;-66
2022/05/12 03:54:43;;;;;;;;;;;;;;;19.96;47.80;99625.94;4446344;32;32298;-67
2022/05/12 03:57:15;;;;;;;;;;;;;;;19.97;48.13;99627.63;4449121;32;34382;-66
2022/05/12 03:59:44;;;;;;;;;;;;;;;19.95;48.08;99627.81;4449227;32;33995;-67
2022/05/12 04:02:14;;;;;;;;;;;;;;;19.99;47.87;99631.84;4449290;32;33828;-66
2022/05/12 04:04:43;;;;;;;;;;;;;;;19.96;48.15;99634.06;4443349;32;34608;-66
2022/05/12 04:07:14;;;;;;;;;;;;;;;20.09;47.94;99639.78;4442612;32;33723;-67
2022/05/12 04:09:44;;;;;;;;;;;;;;;20.11;48.01;99636.91;4446758;32;35495;-67
2022/05/12 04:12:13;;;;;;;;;;;;;;;20.02;48.29;99638.81;4449754;32;34067;-67
2022/05/12 04:14:42;;;;;;;;;;;;;;;20.01;48.30;99640.69;4448313;32;34763;-67
2022/05/12 04:17:15;;;;;;;;;;;;;;;20.11;48.27;99642.31;4446107;32;35095;-67
2022/05/12 04:19:45;;;;;;;;;;;;;;;20.14;47.92;99644.69;4448061;32;34409;-67
2022/05/12 04:22:14;;;;;;;;;;;;;;;20.17;47.79;99647.88;4448764;32;33120;-69
2022/05/12 04:24:43;;;;;;;;;;;;;;;20.17;48.09;99649.75;4450668;32;33472;-68
2022/05/12 04:27:12;;;;;;;;;;;;;;;20.34;47.80;99650.50;4443891;32;34402;-67
2022/05/12 04:29:42;;;;;;;;;;;;;;;20.48;47.60;99650.59;4444899;32;35476;-67
2022/05/12 04:32:11;;;;;;;;;;;;;;;20.59;47.28;99660.22;4447347;32;34183;-67
2022/05/12 04:37:28;;;;;;;;;;;;;;;20.67;46.97;99662.88;4436490;32;34564;-68
2022/05/12 04:40:07;;;;;;;;;;;;;;;20.68;47.09;99664.56;4444955;32;33355;-67
2022/05/12 04:42:36;;;;;;;;;;;;;;;20.77;47.07;99662.62;4447969;32;34224;-68
2022/05/12 04:45:06;;;;;;;;;;;;;;;20.83;46.92;99674.63;4445143;32;33850;-66
2022/05/12 04:47:36;;;;;;;;;;;;;;;20.94;46.89;99668.78;4444917;32;34208;-67
2022/05/12 04:50:06;;;;;;;;;;;;;;;21.05;47.11;99676.47;4448230;32;35047;-67
2022/05/12 04:52:35;;;;;;;;;;;;;;;21.14;46.92;99669.94;4451524;32;33283;-67
2022/05/12 04:55:07;;;;;;;;;;;;;;;21.32;46.95;99671.47;4446580;32;32239;-68
2022/05/12 04:57:45;;;;;;;;;;;;;;;21.56;46.84;99675.84;4449721;32;34309;-67
2022/05/12 05:00:16;;;;;;;;;;;;;;;21.67;46.15;99672.66;4446487;32;33454;-67
2022/05/12 05:02:45;;;;;;;;;;;;;;;21.77;45.55;99681.37;4450759;32;33047;-67
2022/05/12 05:05:14;;;;;;;;;;;;;;;21.79;46.24;99679.28;4446075;32;33594;-67
2022/05/12 05:07:42;;;;;;;;;;;;;;;22.01;45.99;99684.81;4442602;32;34296;-68
2022/05/12 05:10:12;;;;;;;;;;;;;;;22.16;44.97;99676.66;4448077;32;34611;-68
2022/05/12 05:12:41;;;;;;;;;;;;;;;22.26;44.65;99674.47;4447637;32;33922;-67
2022/05/12 05:15:10;;;;;;;;;;;;;;;22.32;44.45;99673.72;4448437;32;33943;-68
2022/05/12 05:17:40;;;;;;;;;;;;;;;22.39;44.38;99674.63;4443865;32;33551;-67
2022/05/12 05:20:09;;;;;;;;;;;;;;;22.49;43.78;99680.59;4441083;32;34448;-68
2022/05/12 05:22:37;;;;;;;;;;;;;;;22.62;44.14;99674.44;4440486;32;34497;-68
2022/05/12 05:25:05;;;;;;;;;;;;;;;22.59;44.71;99671.25;4440453;32;33981;-68
2022/05/12 05:27:34;;;;;;;;;;;;;;;22.83;44.69;99679.06;4445469;32;33960;-68
2022/05/12 05:30:02;;;;;;;;;;;;;;;23.09;43.93;99683.09;4440266;32;34385;-70
2022/05/12 05:32:30;;;;;;;;;;;;;;;23.33;43.53;99676.34;4440841;32;33251;-70
2022/05/12 05:34:58;;;;;;;;;;;;;;;23.46;43.71;99685.47;4440981;32;33648;-68
2022/05/12 05:37:26;;;;;;;;;;;;;;;23.58;42.83;99682.19;4442347;32;34221;-68
2022/05/12 05:39:54;;;;;;;;;;;;;;;23.65;42.25;99675.72;4441131;32;33834;-69
2022/05/12 05:42:22;;;;;;;;;;;;;;;23.61;41.87;99681.78;4447427;32;32824;-67
2022/05/12 05:44:50;;;;;;;;;;;;;;;23.73;42.67;99676.66;4447394;32;34011;-67
2022/05/12 05:47:18;;;;;;;;;;;;;;;23.62;43.21;99675.28;4451380;32;33040;-67
2022/05/12 05:49:45;;;;;;;;;;;;;;;23.77;42.28;99677.94;4449102;32;35406;-67
2022/05/12 05:54:59;;;;;;;;;;;;;;;23.49;41.03;99684.22;4442313;32;32486;-66
2022/05/12 05:57:31;;;;;;;;;;;;;;;23.83;40.81;99677.97;4451912;32;34399;-66
2022/05/12 06:00:04;;;;;;;;;;;;;;;24.14;40.46;99674.75;4450193;32;34248;-67
2022/05/12 06:02:33;;;;;;;;;;;;;;;24.12;41.10;99685.03;4441684;32;33953;-66
2022/05/12 06:05:01;;;;;;;;;;;;;;;24.22;40.63;99686.53;4442818;32;33130;-67
2022/05/12 06:07:28;;;;;;;;;;;;;;;24.18;41.08;99680.66;4438671;32;34911;-66
2022/05/12 06:09:56;;;;;;;;;;;;;;;23.74;41.11;99686.53;4440780;32;34374;-65
2022/05/12 06:12:24;;;;;;;;;;;;;;;24.23;40.42;99691.78;4440072;32;33499;-67
2022/05/12 06:14:52;;;;;;;;;;;;;;;24.22;40.59;99695.59;4440575;32;31236;-68
2022/05/12 06:17:20;;;;;;;;;;;;;;;24.14;40.54;99690.28;4439880;32;34011;-66
2022/05/12 06:19:50;;;;;;;;;;;;;;;24.26;41.12;99691.38;4437101;32;34390;-68
2022/05/12 06:22:19;;;;;;;;;;;;;;;24.35;41.08;99681.94;4437651;32;33089;-66
2022/05/12 06:24:50;;;;;;;;;;;;;;;24.40;40.75;99689.56;4438346;32;33206;-67
2022/05/12 06:27:22;;;;;;;;;;;;;;;23.71;42.06;99690.50;4438909;32;34047;-66
2022/05/12 06:29:51;;;;;;;;;;;;;;;24.26;40.30;99687.81;4443727;32;34271;-67
2022/05/12 06:32:19;;;;;;;;;;;;;;;23.74;41.85;99695.56;4440423;32;34857;-67
2022/05/12 06:34:48;;;;;;;;;;;;;;;23.82;42.19;99689.94;4443302;32;32360;-65
2022/05/12 06:37:16;;;;;;;;;;;;;;;23.64;41.96;99693.16;4447553;32;33143;-67
2022/05/12 06:39:44;;;;;;;;;;;;;;;23.70;41.69;99694.28;4415876;32;883487;-66
2022/05/12 06:42:13;;;;;;;;;;;;;;;23.84;42.17;99690.56;4440042;32;34280;-67
2022/05/12 06:44:42;;;;;;;;;;;;;;;24.08;42.19;99693.84;4440840;32;33618;-65
2022/05/12 06:47:10;;;;;;;;;;;;;;;24.05;41.44;99697.00;4441699;32;34063;-68
2022/05/12 06:49:39;;;;;;;;;;;;;;;24.25;41.26;99699.81;4440723;32;35624;-65
2022/05/12 06:52:07;;;;;;;;;;;;;;;24.58;40.46;99702.66;4437542;32;33951;-66
2022/05/12 06:54:36;;;;;;;;;;;;;;;24.55;40.88;99703.09;4439920;32;34442;-65
2022/05/12 06:57:03;;;;;;;;;;;;;;;24.78;40.32;99702.69;4439288;32;34117;-65
2022/05/12 06:59:35;;;;;;;;;;;;;;;24.76;40.54;99700.19;4444382;32;34120;-65
2022/05/12 07:02:03;;;;;;;;;;;;;;;25.02;39.61;99699.38;4441364;32;33614;-66
2022/05/12 07:04:31;;;;;;;;;;;;;;;25.03;40.40;99701.06;4441562;32;33331;-65
2022/05/12 07:06:59;;;;;;;;;;;;;;;24.94;40.18;99704.19;4448722;32;33283;-65
2022/05/12 07:09:27;;;;;;;;;;;;;;;24.53;40.55;99694.25;4438218;32;35878;-65
2022/05/12 07:11:55;;;;;;;;;;;;;;;24.53;40.62;99689.63;4439336;32;34985;-67
2022/05/12 07:14:23;;;;;;;;;;;;;;;24.44;40.33;99692.75;4439939;32;34454;-67
2022/05/12 07:16:51;;;;;;;;;;;;;;;24.78;40.13;99691.75;4441337;32;35427;-67
2022/05/12 07:19:19;;;;;;;;;;;;;;;24.57;41.52;99692.78;4443995;32;35567;-67
2022/05/12 07:27:20;;;;;;;;;;;;;;;25.03;39.86;99698.31;4441347;32;34556;-66
2022/05/12 07:29:48;;;;;;;;;;;;;;;25.13;39.59;99699.81;4441552;32;34404;-66
2022/05/12 07:32:15;;;;;;;;;;;;;;;25.31;39.35;99694.56;4441096;32;34732;-66
2022/05/12 07:34:44;;;;;;;;;;;;;;;24.95;40.38;99693.06;4444878;32;34570;-66
2022/05/12 07:37:11;;;;;;;;;;;;;;;24.96;39.17;99699.38;4446560;32;32820;-68
2022/05/12 07:39:40;;;;;;;;;;;;;;;24.68;39.88;99691.31;4452126;32;35746;-65
2022/05/12 07:42:08;;;;;;;;;;;;;;;24.64;39.86;99691.75;4448894;32;32635;-66
2022/05/12 07:44:37;;;;;;;;;;;;;;;24.92;39.63;99688.00;4446005;32;31367;-66
2022/05/12 07:47:09;;;;;;;;;;;;;;;25.33;40.12;99685.09;4439999;32;34204;-68
2022/05/12 07:49:37;;;;;;;;;;;;;;;25.22;39.87;99687.63;4440290;32;33299;-64
2022/05/12 07:52:05;;;;;;;;;;;;;;;25.65;38.42;99684.38;4438147;32;32894;-66
2022/05/12 07:54:34;;;;;;;;;;;;;;;25.46;38.52;99686.13;4442610;32;32305;-66
2022/05/12 07:57:01;;;;;;;;;;;;;;;25.77;37.94;99683.50;4442538;32;33759;-67
2022/05/12 07:59:29;;;;;;;;;;;;;;;25.86;37.88;99683.31;4439539;32;33085;-67
2022/05/12 08:01:58;;;;;;;;;;;;;;;26.05;38.31;99693.38;4442359;32;34305;-66
2022/05/12 08:04:27;;;;;;;;;;;;;;;25.75;39.42;99688.37;4443204;32;33531;-68
2022/05/12 08:06:54;;;;;;;;;;;;;;;25.81;39.01;99692.22;4436238;32;35599;-66
2022/05/12 08:09:23;;;;;;;;;;;;;;;25.38;40.31;99700.88;4441147;32;34289;-67
2022/05/12 08:11:51;;;;;;;;;;;;;;;25.93;38.15;99695.09;4441013;32;32619;-66
2022/05/12 08:14:18;;;;;;;;;;;;;;;25.62;39.34;99699.38;4442254;32;31907;-67
2022/05/12 08:16:47;;;;;;;;;;;;;;;25.91;37.55;99697.25;4438061;32;32801;-66
2022/05/12 08:19:15;;;;;;;;;;;;;;;25.51;38.77;99695.38;4440060;32;35132;-67
2022/05/12 08:21:43;;;;;;;;;;;;;;;25.45;39.38;99698.13;4441869;32;35356;-66
2022/05/12 08:24:11;;;;;;;;;;;;;;;25.61;38.79;99697.69;4440430;32;33516;-65
2022/05/12 08:26:39;;;;;;;;;;;;;;;25.96;38.77;99695.50;4437804;32;34885;-67
2022/05/12 08:29:06;;;;;;;;;;;;;;;25.86;38.82;99694.28;4440960;32;33546;-66
2022/05/12 08:31:34;;;;;;;;;;;;;;;26.47;37.33;99689.16;4442081;32;34370;-66
2022/05/12 08:34:03;;;;;;;;;;;;;;;25.98;38.27;99695.31;4445604;32;32191;-68
2022/05/12 08:36:31;;;;;;;;;;;;;;;26.17;37.87;99691.66;4442339;32;33826;-68
2022/05/12 08:38:58;;;;;;;;;;;;;;;26.39;38.31;99699.56;4441043;32;33061;-68
2022/05/12 08:41:34;;;;;;;;;;;;;;;26.77;37.37;99696.81;4443780;32;33007;-72
2022/05/12 08:44:08;;;;;;;;;;;;;;;26.47;37.41;99708.38;4441725;32;32493;-67
2022/05/12 08:46:38;;;;;;;;;;;;;;;26.71;37.44;99700.47;4449564;32;35225;-67
2022/05/12 08:49:19;;;;;;;;;;;;;;;26.91;37.63;99700.34;4419976;32;32732;-68
2022/05/12 08:51:48;;;;;;;;;;;;;;;26.73;37.58;99697.50;4453653;32;33119;-66
2022/05/12 08:54:18;;;;;;;;;;;;;;;27.25;36.66;99704.53;4439335;32;33568;-66
2022/05/12 08:56:46;;;;;;;;;;;;;;;26.63;37.91;99701.56;4440907;32;33535;-67
2022/05/12 08:59:14;;;;;;;;;;;;;;;26.84;37.77;99707.78;4438871;32;33529;-67
2022/05/12 09:01:56;;;;;;;;;;;;;;;26.77;38.13;99702.31;4435386;32;33844;-67
2022/05/12 09:04:43;;;;;;;;;;;;;;;27.09;37.00;99700.38;4438633;32;33497;-68
2022/05/12 09:07:20;;;;;;;;;;;;;;;26.84;37.56;99694.06;4440740;32;34198;-67
2022/05/12 09:09:48;;;;;;;;;;;;;;;27.02;37.03;99699.59;4440885;32;31554;-68
2022/05/12 09:12:34;;;;;;;;;;;;;;;27.35;36.89;99706.75;4443648;32;33108;-67
2022/05/12 09:15:21;;;;;;;;;;;;;;;27.52;36.22;99705.13;4449442;32;32675;-67
2022/05/12 09:17:52;;;;;;;;;;;;;;;27.75;36.49;99703.63;4448827;32;35255;-67
2022/05/12 09:20:24;;;;;;;;;;;;;;;27.64;36.12;99706.06;4450251;32;32987;-68
2022/05/12 09:22:59;;;;;;;;;;;;;;;27.28;36.77;99705.97;4446196;32;35470;-69
2022/05/12 09:25:39;;;;;;;;;;;;;;;27.71;35.65;99710.66;4450022;32;32494;-68
2022/05/12 09:28:19;;;;;;;;;;;;;;;28.42;35.50;99707.34;4445922;32;34221;-68
2022/05/12 09:31:15;;;;;;;;;;;;;;;28.18;34.35;99709.09;4446457;32;34517;-68
2022/05/12 09:33:52;;;;;;;;;;;;;;;28.24;34.61;99710.06;4439369;32;32882;-68
2022/05/12 09:36:26;;;;;;;;;;;;;;;28.59;34.79;99710.28;4444591;32;32822;-67
2022/05/12 09:38:58;;;;;;;;;;;;;;;29.28;33.44;99708.00;4447303;32;32498;-67
2022/05/12 09:41:48;;;;;;;;;;;;;;;28.56;34.44;99716.25;4438549;32;35449;-67
2022/05/12 09:44:22;;;;;;;;;;;;;;;28.73;34.11;99710.91;4447705;32;33418;-69
2022/05/12 09:46:55;;;;;;;;;;;;;;;29.12;33.48;99709.53;4445742;32;33583;-66
2022/05/12 09:49:29;;;;;;;;;;;;;;;29.34;33.65;99708.94;4450797;32;34385;-67
2022/05/12 09:52:15;;;;;;;;;;;;;;;30.08;31.99;99704.63;4454863;32;33157;-66
2022/05/12 09:54:46;;;;;;;;;;;;;;;29.50;32.50;99710.97;4454412;32;33860;-68
2022/05/12 09:57:17;;;;;;;;;;;;;;;29.66;33.43;99701.16;4446777;32;33024;-67
2022/05/12 09:59:51;;;;;;;;;;;;;;;29.94;33.26;99700.44;4440449;32;32842;-69
2022/05/12 10:08:19;;;;;;;;;;;;;;;30.88;30.55;99686.31;4447426;32;33591;-68
2022/05/12 10:10:56;;;;;;;;;;;;;;;31.09;31.04;99687.53;4453410;32;34972;-68
2022/05/12 10:13:31;;;;;;;;;;;;;;;30.62;31.79;99683.06;4446669;32;34107;-67
2022/05/12 10:16:03;;;;;;;;;;;;;;;31.15;30.58;99672.72;4447502;32;34027;-67
2022/05/12 10:18:43;;;;;;;;;;;;;;;31.30;30.67;99680.37;4447705;32;33361;-67
2022/05/12 10:21:13;;;;;;;;;;;;;;;31.31;29.58;99674.63;4453255;32;34166;-68
2022/05/12 10:23:46;;;;;;;;;;;;;;;31.74;28.49;99667.53;4451755;32;34379;-68
2022/05/12 10:26:23;;;;;;;;;;;;;;;31.58;29.71;99665.63;4449086;32;33097;-68
2022/05/12 10:29:02;;;;;;;;;;;;;;;31.59;29.04;99661.81;4449787;32;32330;-68
2022/05/12 10:31:50;;;;;;;;;;;;;;;32.25;28.52;99661.84;4443291;32;32653;-69
2022/05/12 10:34:35;;;;;;;;;;;;;;;31.94;29.14;99663.38;4449421;32;34245;-70
2022/05/12 10:37:26;;;;;;;;;;;;;;;32.27;28.94;99656.91;4447313;32;34410;-69
2022/05/12 10:40:11;;;;;;;;;;;;;;;32.29;28.29;99653.84;4438341;32;32429;-68
2022/05/12 10:42:42;;;;;;;;;;;;;;;32.04;28.39;99660.78;4450652;32;35304;-68
2022/05/12 10:45:19;;;;;;;;;;;;;;;32.50;27.94;99663.28;4445084;32;34290;-69
2022/05/12 10:48:11;;;;;;;;;;;;;;;32.70;27.39;99657.91;4448398;32;32739;-68
2022/05/12 10:50:43;;;;;;;;;;;;;;;32.89;27.85;99658.37;4452457;32;33547;-68
2022/05/12 10:53:22;;;;;;;;;;;;;;;33.06;28.24;99661.88;4450583;32;34197;-67
2022/05/12 10:55:50;;;;;;;;;;;;;;;32.59;28.85;99656.16;4450230;32;34642;-67
2022/05/12 10:58:29;;;;;;;;;;;;;;;32.42;28.96;99662.59;4451526;32;34490;-67
2022/05/12 11:01:09;;;;;;;;;;;;;;;32.47;28.40;99659.06;4443159;32;34994;-68
2022/05/12 11:03:42;;;;;;;;;;;;;;;32.15;28.64;99648.72;4451581;32;35329;-67
2022/05/12 11:06:14;;;;;;;;;;;;;;;32.92;27.23;99641.22;4451928;32;33427;-67
2022/05/12 11:08:43;;;;;;;;;;;;;;;32.94;28.18;99645.41;4432802;32;32635;-67
2022/05/12 11:11:24;;;;;;;;;;;;;;;33.34;27.53;99646.00;4451134;32;33488;-67
2022/05/12 11:14:08;;;;;;;;;;;;;;;32.96;26.99;99639.59;4451413;32;34186;-67
2022/05/12 11:16:43;;;;;;;;;;;;;;;33.38;28.45;99631.31;4439284;32;34483;-66
2022/05/12 11:19:19;;;;;;;;;;;;;;;33.06;27.14;99631.38;4451015;32;34037;-67
2022/05/12 11:21:50;;;;;;;;;;;;;;;32.51;26.18;99631.69;4451014;32;32221;-67
2022/05/12 11:24:30;;;;;;;;;;;;;;;33.00;25.13;99629.66;4451877;32;34196;-67
2022/05/12 11:27:13;;;;;;;;;;;;;;;32.84;26.30;99627.84;4440397;32;35476;-68
2022/05/12 11:29:55;;;;;;;;;;;;;;;33.29;26.24;99626.53;4444727;32;32858;-67
2022/05/12 11:32:26;;;;;;;;;;;;;;;32.81;25.99;99620.91;4447268;32;33015;-68
2022/05/12 11:35:02;;;;;;;;;;;;;;;33.12;25.67;99622.00;4451345;32;32782;-68
2022/05/12 11:37:35;;;;;;;;;;;;;;;33.19;24.91;99615.38;4448211;32;33295;-68
2022/05/12 11:40:09;;;;;;;;;;;;;;;33.25;25.49;99614.31;4442292;32;34157;-68
2022/05/12 11:45:50;;;;;;;;;;;;;;;33.57;25.10;99606.78;4446413;32;32667;-68
2022/05/12 11:48:34;;;;;;;;;;;;;;;33.29;24.00;99602.44;4450651;32;34033;-69
2022/05/12 11:51:10;;;;;;;;;;;;;;;33.48;24.66;99616.69;4448350;32;34489;-70
2022/05/12 11:53:53;;;;;;;;;;;;;;;33.54;25.36;99609.25;4446933;32;32427;-69
2022/05/12 11:56:32;;;;;;;;;;;;;;;33.14;26.12;99603.16;4454354;32;34135;-70
2022/05/12 11:59:19;;;;;;;;;;;;;;;33.57;25.68;99608.72;4450238;32;32958;-68
2022/05/12 12:01:53;;;;;;;;;;;;;;;33.28;24.41;99608.25;4449826;32;34028;-68
2022/05/12 12:04:41;;;;;;;;;;;;;;;33.57;22.99;99600.41;4444012;32;32653;-69
2022/05/12 12:07:44;;;;;;;;;;;;;;;32.99;22.32;99603.06;4448688;32;34265;-69
2022/05/12 12:10:23;;;;;;;;;;;;;;;32.90;22.62;99605.44;4421789;32;35146;-69
2022/05/12 12:13:00;;;;;;;;;;;;;;;32.88;22.47;99606.81;4446338;32;35094;-68
2022/05/12 12:15:34;;;;;;;;;;;;;;;32.70;21.96;99608.03;4440049;32;32190;-67
2022/05/12 12:18:18;;;;;;;;;;;;;;;33.14;22.08;99602.34;4447712;32;34978;-67
2022/05/12 12:20:48;;;;;;;;;;;;;;;33.14;22.49;99596.78;4449014;32;33341;-68
2022/05/12 12:23:33;;;;;;;;;;;;;;;32.69;22.90;99598.91;4445190;32;34064;-67
2022/05/12 12:26:11;;;;;;;;;;;;;;;32.63;21.80;99599.13;4452535;32;31891;-67
2022/05/12 12:28:58;;;;;;;;;;;;;;;32.78;23.16;99587.31;4443165;32;34757;-69
2022/05/12 12:31:34;;;;;;;;;;;;;;;32.46;24.06;99582.63;4448989;32;33849;-68
2022/05/12 12:34:05;;;;;;;;;;;;;;;32.65;23.36;99594.12;4445691;32;34269;-69
2022/05/12 12:36:36;;;;;;;;;;;;;;;32.60;23.09;99597.72;4440529;32;32712;-69
2022/05/12 12:39:05;;;;;;;;;;;;;;;32.56;22.87;99601.28;4443871;32;34286;-69
2022/05/12 12:41:37;;;;;;;;;;;;;;;33.03;23.08;99586.72;4450401;32;32391;-67
2022/05/12 12:44:12;;;;;;;;;;;;;;;32.74;23.36;99588.94;4449974;32;33029;-69
2022/05/12 12:46:58;;;;;;;;;;;;;;;32.76;21.21;99584.81;4451424;32;34477;-67
2022/05/12 12:49:29;;;;;;;;;;;;;;;32.39;21.87;99577.28;4448396;32;34802;-66
2022/05/12 12:51:58;;;;;;;;;;;;;;;32.80;21.92;99579.59;4442222;32;36710;-67
2022/05/12 12:57:28;;;;;;;;;;;;;;;33.15;21.05;99579.88;4447395;32;32202;-68
2022/05/12 12:59:58;;;;;;;;;;;;;;;33.05;20.98;99568.72;4453195;32;34172;-67
2022/05/12 13:02:27;;;;;;;;;;;;;;;33.28;20.97;99574.97;4445349;32;34105;-67
2022/05/12 13:04:55;;;;;;;;;;;;;;;33.30;21.53;99559.72;4447267;32;32403;-68
2022/05/12 13:07:25;;;;;;;;;;;;;;;32.63;22.84;99560.34;4446252;32;34971;-68
2022/05/12 13:09:53;;;;;;;;;;;;;;;32.89;23.24;99567.75;4449062;32;34265;-67
2022/05/12 13:12:22;;;;;;;;;;;;;;;32.97;21.79;99560.91;4443395;32;34456;-67
2022/05/12 13:14:51;;;;;;;;;;;;;;;32.56;22.75;99560.56;4442265;32;35009;-69
2022/05/12 13:17:21;;;;;;;;;;;;;;;32.77;22.24;99555.16;4440737;32;34259;-67
2022/05/12 13:19:49;;;;;;;;;;;;;;;32.95;21.95;99560.31;4442543;32;34014;-69
2022/05/12 13:22:24;;;;;;;;;;;;;;;32.32;22.47;99553.63;4448921;32;35419;-68
2022/05/12 13:24:52;;;;;;;;;;;;;;;32.79;23.24;99551.03;4448402;32;33162;-68
2022/05/12 13:27:22;;;;;;;;;;;;;;;32.64;22.80;99559.22;4438998;32;33240;-68
2022/05/12 13:29:49;;;;;;;;;;;;;;;32.13;23.18;99559.53;4443433;32;32810;-70
2022/05/12 13:32:34;;;;;;;;;;;;;;;31.95;24.33;99557.16;4444386;32;34293;-70
2022/05/12 13:35:06;;;;;;;;;;;;;;;32.12;23.33;99566.19;4440505;32;34136;-69